sensor_id;sensor_type;location;lat;lon;timestamp;P1;durP1;ratioP1;P2;durP2;ratioP2
691;SDS011;328;50.086;8.576;2023-05-10T00:00:12;2.00;;;0.90;;
691;SDS011;328;50.086;8.576;2023-05-10T00:02:42;1.70;;;1.10;;
691;SDS011;328;50.086;8.576;2023-05-10T00:05:09;2.23;;;0.80;;
691;SDS011;328;50.086;8.576;2023-05-10T00:07:37;1.90;;;1.20;;
691;SDS011;328;50.086;8.576;2023-05-10T00:10:04;1.27;;;1.03;;
691;SDS011;328;50.086;8.576;2023-05-10T00:12:32;1.00;;;0.77;;
691;SDS011;328;50.086;8.576;2023-05-10T00:15:00;2.97;;;1.00;;
691;SDS011;328;50.086;8.576;2023-05-10T00:17:28;1.40;;;0.70;;
691;SDS011;328;50.086;8.576;2023-05-10T00:19:57;1.87;;;1.03;;
691;SDS011;328;50.086;8.576;2023-05-10T00:22:25;1.57;;;0.80;;
691;SDS011;328;50.086;8.576;2023-05-10T00:24:52;0.80;;;0.70;;
691;SDS011;328;50.086;8.576;2023-05-10T00:27:20;1.63;;;0.77;;
691;SDS011;328;50.086;8.576;2023-05-10T00:29:47;2.33;;;1.83;;
691;SDS011;328;50.086;8.576;2023-05-10T00:32:15;0.80;;;0.60;;
691;SDS011;328;50.086;8.576;2023-05-10T00:34:42;0.87;;;0.60;;
691;SDS011;328;50.086;8.576;2023-05-10T00:37:11;3.80;;;0.60;;
691;SDS011;328;50.086;8.576;2023-05-10T00:39:39;7.93;;;0.90;;
691;SDS011;328;50.086;8.576;2023-05-10T00:42:06;0.60;;;0.40;;
691;SDS011;328;50.086;8.576;2023-05-10T00:44:33;1.43;;;0.50;;
691;SDS011;328;50.086;8.576;2023-05-10T00:47:01;0.90;;;0.60;;
691;SDS011;328;50.086;8.576;2023-05-10T00:49:28;1.10;;;0.53;;
691;SDS011;328;50.086;8.576;2023-05-10T00:51:57;1.57;;;0.50;;
691;SDS011;328;50.086;8.576;2023-05-10T00:54:26;1.20;;;0.50;;
691;SDS011;328;50.086;8.576;2023-05-10T00:56:53;5.70;;;0.70;;
691;SDS011;328;50.086;8.576;2023-05-10T00:59:22;0.80;;;0.50;;
691;SDS011;328;50.086;8.576;2023-05-10T01:01:51;1.00;;;0.57;;
691;SDS011;328;50.086;8.576;2023-05-10T01:04:19;9.67;;;0.70;;
691;SDS011;328;50.086;8.576;2023-05-10T01:06:51;0.70;;;0.50;;
691;SDS011;328;50.086;8.576;2023-05-10T01:09:19;0.70;;;0.50;;
691;SDS011;328;50.086;8.576;2023-05-10T01:11:49;1.43;;;0.50;;
691;SDS011;328;50.086;8.576;2023-05-10T01:14:17;1.77;;;0.70;;
691;SDS011;328;50.086;8.576;2023-05-10T01:16:46;1.43;;;0.47;;
691;SDS011;328;50.086;8.576;2023-05-10T01:19:17;3.07;;;0.60;;
691;SDS011;328;50.086;8.576;2023-05-10T01:21:48;0.90;;;0.53;;
691;SDS011;328;50.086;8.576;2023-05-10T01:24:25;1.10;;;0.60;;
691;SDS011;328;50.086;8.576;2023-05-10T01:30:02;1.13;;;0.50;;
691;SDS011;328;50.086;8.576;2023-05-10T01:32:44;1.47;;;0.80;;
691;SDS011;328;50.086;8.576;2023-05-10T01:35:15;0.83;;;0.60;;
691;SDS011;328;50.086;8.576;2023-05-10T01:37:45;1.43;;;1.00;;
691;SDS011;328;50.086;8.576;2023-05-10T01:40:16;0.80;;;0.60;;
691;SDS011;328;50.086;8.576;2023-05-10T01:42:50;1.67;;;0.70;;
691;SDS011;328;50.086;8.576;2023-05-10T01:45:20;1.33;;;0.83;;
691;SDS011;328;50.086;8.576;2023-05-10T01:47:56;1.53;;;0.80;;
691;SDS011;328;50.086;8.576;2023-05-10T01:50:27;1.47;;;0.67;;
691;SDS011;328;50.086;8.576;2023-05-10T01:52:57;0.87;;;0.50;;
691;SDS011;328;50.086;8.576;2023-05-10T01:55:26;2.40;;;1.27;;
691;SDS011;328;50.086;8.576;2023-05-10T01:57:58;1.67;;;0.50;;
691;SDS011;328;50.086;8.576;2023-05-10T02:00:29;0.97;;;0.63;;
691;SDS011;328;50.086;8.576;2023-05-10T02:02:58;2.03;;;0.73;;
691;SDS011;328;50.086;8.576;2023-05-10T02:05:27;2.00;;;0.80;;
691;SDS011;328;50.086;8.576;2023-05-10T02:07:56;2.10;;;0.80;;
691;SDS011;328;50.086;8.576;2023-05-10T02:10:25;0.70;;;0.50;;
691;SDS011;328;50.086;8.576;2023-05-10T02:12:53;2.33;;;0.80;;
691;SDS011;328;50.086;8.576;2023-05-10T02:15:22;1.63;;;0.63;;
691;SDS011;328;50.086;8.576;2023-05-10T02:17:50;4.40;;;0.60;;
691;SDS011;328;50.086;8.576;2023-05-10T02:20:22;1.13;;;0.90;;
691;SDS011;328;50.086;8.576;2023-05-10T02:22:51;0.80;;;0.60;;
691;SDS011;328;50.086;8.576;2023-05-10T02:25:20;0.80;;;0.60;;
691;SDS011;328;50.086;8.576;2023-05-10T02:27:49;3.53;;;0.90;;
691;SDS011;328;50.086;8.576;2023-05-10T02:30:17;1.10;;;0.70;;
691;SDS011;328;50.086;8.576;2023-05-10T02:32:45;1.67;;;0.63;;
691;SDS011;328;50.086;8.576;2023-05-10T02:35:13;1.53;;;0.80;;
691;SDS011;328;50.086;8.576;2023-05-10T02:37:43;0.70;;;0.60;;
691;SDS011;328;50.086;8.576;2023-05-10T02:40:11;1.20;;;0.70;;
691;SDS011;328;50.086;8.576;2023-05-10T02:42:40;1.00;;;0.73;;
691;SDS011;328;50.086;8.576;2023-05-10T02:45:10;1.63;;;0.70;;
691;SDS011;328;50.086;8.576;2023-05-10T02:47:39;1.00;;;0.70;;
691;SDS011;328;50.086;8.576;2023-05-10T02:50:07;0.97;;;0.60;;
691;SDS011;328;50.086;8.576;2023-05-10T02:52:37;0.73;;;0.57;;
691;SDS011;328;50.086;8.576;2023-05-10T02:55:08;1.00;;;0.70;;
691;SDS011;328;50.086;8.576;2023-05-10T02:57:38;1.37;;;0.77;;
691;SDS011;328;50.086;8.576;2023-05-10T03:00:08;1.00;;;0.60;;
691;SDS011;328;50.086;8.576;2023-05-10T03:02:36;1.10;;;0.80;;
691;SDS011;328;50.086;8.576;2023-05-10T03:05:04;1.40;;;0.70;;
691;SDS011;328;50.086;8.576;2023-05-10T03:07:32;1.00;;;0.80;;
691;SDS011;328;50.086;8.576;2023-05-10T03:10:00;2.10;;;1.67;;
691;SDS011;328;50.086;8.576;2023-05-10T03:12:31;0.70;;;0.63;;
691;SDS011;328;50.086;8.576;2023-05-10T03:15:14;1.60;;;0.73;;
691;SDS011;328;50.086;8.576;2023-05-10T03:17:47;0.80;;;0.67;;
691;SDS011;328;50.086;8.576;2023-05-10T03:20:21;4.87;;;2.40;;
691;SDS011;328;50.086;8.576;2023-05-10T03:22:51;1.10;;;0.70;;
691;SDS011;328;50.086;8.576;2023-05-10T03:25:20;1.37;;;0.70;;
691;SDS011;328;50.086;8.576;2023-05-10T03:27:49;1.10;;;0.70;;
691;SDS011;328;50.086;8.576;2023-05-10T03:30:17;1.10;;;0.60;;
691;SDS011;328;50.086;8.576;2023-05-10T03:32:45;3.07;;;0.80;;
691;SDS011;328;50.086;8.576;2023-05-10T03:35:13;1.70;;;0.97;;
691;SDS011;328;50.086;8.576;2023-05-10T03:37:41;1.10;;;0.80;;
691;SDS011;328;50.086;8.576;2023-05-10T03:40:09;1.87;;;0.80;;
691;SDS011;328;50.086;8.576;2023-05-10T03:42:37;1.37;;;0.93;;
691;SDS011;328;50.086;8.576;2023-05-10T03:45:06;2.03;;;0.90;;
691;SDS011;328;50.086;8.576;2023-05-10T03:47:35;3.60;;;0.73;;
691;SDS011;328;50.086;8.576;2023-05-10T03:50:03;2.10;;;0.70;;
691;SDS011;328;50.086;8.576;2023-05-10T03:52:31;1.03;;;0.80;;
691;SDS011;328;50.086;8.576;2023-05-10T03:54:59;3.13;;;0.93;;
691;SDS011;328;50.086;8.576;2023-05-10T03:57:26;1.10;;;0.77;;
691;SDS011;328;50.086;8.576;2023-05-10T03:59:54;0.80;;;0.60;;
691;SDS011;328;50.086;8.576;2023-05-10T04:02:22;1.43;;;1.13;;
691;SDS011;328;50.086;8.576;2023-05-10T04:04:50;2.73;;;1.83;;
691;SDS011;328;50.086;8.576;2023-05-10T04:07:18;1.10;;;0.93;;
691;SDS011;328;50.086;8.576;2023-05-10T04:09:46;1.10;;;0.83;;
691;SDS011;328;50.086;8.576;2023-05-10T04:12:13;2.13;;;1.00;;
691;SDS011;328;50.086;8.576;2023-05-10T04:14:41;1.20;;;1.10;;
691;SDS011;328;50.086;8.576;2023-05-10T04:17:08;1.20;;;0.77;;
691;SDS011;328;50.086;8.576;2023-05-10T04:19:38;2.93;;;0.80;;
691;SDS011;328;50.086;8.576;2023-05-10T04:22:05;4.00;;;1.10;;
691;SDS011;328;50.086;8.576;2023-05-10T04:24:33;1.07;;;0.80;;
691;SDS011;328;50.086;8.576;2023-05-10T04:27:00;1.57;;;1.10;;
691;SDS011;328;50.086;8.576;2023-05-10T04:29:27;1.43;;;1.10;;
691;SDS011;328;50.086;8.576;2023-05-10T04:31:55;1.80;;;1.40;;
691;SDS011;328;50.086;8.576;2023-05-10T04:34:23;1.53;;;1.00;;
691;SDS011;328;50.086;8.576;2023-05-10T04:36:52;1.40;;;0.90;;
691;SDS011;328;50.086;8.576;2023-05-10T04:39:20;1.40;;;1.27;;
691;SDS011;328;50.086;8.576;2023-05-10T04:41:47;1.20;;;1.00;;
691;SDS011;328;50.086;8.576;2023-05-10T04:44:15;1.80;;;1.23;;
691;SDS011;328;50.086;8.576;2023-05-10T04:46:42;4.23;;;1.33;;
691;SDS011;328;50.086;8.576;2023-05-10T04:49:10;2.67;;;1.13;;
691;SDS011;328;50.086;8.576;2023-05-10T04:51:37;1.33;;;1.10;;
691;SDS011;328;50.086;8.576;2023-05-10T04:54:06;1.80;;;1.30;;
691;SDS011;328;50.086;8.576;2023-05-10T04:56:34;1.53;;;1.07;;
691;SDS011;328;50.086;8.576;2023-05-10T04:59:01;3.03;;;1.33;;
691;SDS011;328;50.086;8.576;2023-05-10T05:01:29;1.47;;;1.10;;
691;SDS011;328;50.086;8.576;2023-05-10T05:03:56;2.27;;;0.93;;
691;SDS011;328;50.086;8.576;2023-05-10T05:06:24;1.97;;;1.40;;
691;SDS011;328;50.086;8.576;2023-05-10T05:08:53;1.80;;;1.33;;
691;SDS011;328;50.086;8.576;2023-05-10T05:11:22;1.50;;;1.20;;
691;SDS011;328;50.086;8.576;2023-05-10T05:13:49;1.53;;;1.37;;
691;SDS011;328;50.086;8.576;2023-05-10T05:16:17;2.37;;;1.57;;
691;SDS011;328;50.086;8.576;2023-05-10T05:18:44;2.07;;;1.70;;
691;SDS011;328;50.086;8.576;2023-05-10T05:21:14;3.83;;;1.97;;
691;SDS011;328;50.086;8.576;2023-05-10T05:23:43;2.10;;;1.90;;
691;SDS011;328;50.086;8.576;2023-05-10T05:26:11;3.33;;;1.80;;
691;SDS011;328;50.086;8.576;2023-05-10T05:28:39;2.00;;;1.80;;
691;SDS011;328;50.086;8.576;2023-05-10T05:31:07;3.83;;;1.97;;
691;SDS011;328;50.086;8.576;2023-05-10T05:33:35;4.23;;;2.07;;
691;SDS011;328;50.086;8.576;2023-05-10T05:36:03;2.60;;;1.87;;
691;SDS011;328;50.086;8.576;2023-05-10T05:38:32;2.73;;;2.00;;
691;SDS011;328;50.086;8.576;2023-05-10T05:41:00;3.00;;;1.80;;
691;SDS011;328;50.086;8.576;2023-05-10T05:43:27;3.00;;;2.10;;
691;SDS011;328;50.086;8.576;2023-05-10T05:45:56;3.30;;;2.60;;
691;SDS011;328;50.086;8.576;2023-05-10T05:48:24;2.70;;;1.97;;
691;SDS011;328;50.086;8.576;2023-05-10T05:50:53;2.47;;;2.27;;
691;SDS011;328;50.086;8.576;2023-05-10T05:53:22;2.03;;;1.83;;
691;SDS011;328;50.086;8.576;2023-05-10T05:55:52;3.00;;;1.80;;
691;SDS011;328;50.086;8.576;2023-05-10T05:58:21;2.73;;;1.73;;
691;SDS011;328;50.086;8.576;2023-05-10T06:00:48;3.00;;;2.10;;
691;SDS011;328;50.086;8.576;2023-05-10T06:03:19;2.40;;;2.00;;
691;SDS011;328;50.086;8.576;2023-05-10T06:05:47;2.90;;;1.90;;
691;SDS011;328;50.086;8.576;2023-05-10T06:08:14;2.03;;;1.80;;
691;SDS011;328;50.086;8.576;2023-05-10T06:10:42;3.43;;;2.07;;
691;SDS011;328;50.086;8.576;2023-05-10T06:13:10;4.47;;;2.40;;
691;SDS011;328;50.086;8.576;2023-05-10T06:15:38;5.10;;;2.20;;
691;SDS011;328;50.086;8.576;2023-05-10T06:18:06;3.73;;;2.30;;
691;SDS011;328;50.086;8.576;2023-05-10T06:20:34;2.87;;;2.20;;
691;SDS011;328;50.086;8.576;2023-05-10T06:23:02;4.03;;;2.50;;
691;SDS011;328;50.086;8.576;2023-05-10T06:25:29;4.23;;;2.73;;
691;SDS011;328;50.086;8.576;2023-05-10T06:27:57;2.90;;;2.43;;
691;SDS011;328;50.086;8.576;2023-05-10T06:30:24;4.07;;;2.70;;
691;SDS011;328;50.086;8.576;2023-05-10T06:32:54;3.00;;;2.40;;
691;SDS011;328;50.086;8.576;2023-05-10T06:35:22;3.03;;;1.83;;
691;SDS011;328;50.086;8.576;2023-05-10T06:37:51;2.93;;;2.43;;
691;SDS011;328;50.086;8.576;2023-05-10T06:40:19;3.90;;;2.23;;
691;SDS011;328;50.086;8.576;2023-05-10T06:42:46;2.83;;;2.57;;
691;SDS011;328;50.086;8.576;2023-05-10T06:45:14;2.90;;;2.13;;
691;SDS011;328;50.086;8.576;2023-05-10T06:47:43;3.30;;;2.60;;
691;SDS011;328;50.086;8.576;2023-05-10T06:50:10;4.87;;;2.67;;
691;SDS011;328;50.086;8.576;2023-05-10T06:52:38;12.80;;;4.03;;
691;SDS011;328;50.086;8.576;2023-05-10T06:55:08;4.00;;;2.47;;
691;SDS011;328;50.086;8.576;2023-05-10T06:57:36;2.73;;;2.27;;
691;SDS011;328;50.086;8.576;2023-05-10T07:00:04;3.40;;;2.20;;
691;SDS011;328;50.086;8.576;2023-05-10T07:02:32;3.87;;;2.17;;
691;SDS011;328;50.086;8.576;2023-05-10T07:05:00;5.23;;;2.43;;
691;SDS011;328;50.086;8.576;2023-05-10T07:07:40;3.80;;;2.43;;
691;SDS011;328;50.086;8.576;2023-05-10T07:10:09;3.20;;;2.10;;
691;SDS011;328;50.086;8.576;2023-05-10T07:12:37;4.40;;;2.40;;
691;SDS011;328;50.086;8.576;2023-05-10T07:15:05;4.77;;;2.20;;
691;SDS011;328;50.086;8.576;2023-05-10T07:17:34;2.23;;;2.03;;
691;SDS011;328;50.086;8.576;2023-05-10T07:20:01;4.13;;;2.80;;
691;SDS011;328;50.086;8.576;2023-05-10T07:22:29;4.77;;;2.70;;
691;SDS011;328;50.086;8.576;2023-05-10T07:24:57;5.30;;;2.37;;
691;SDS011;328;50.086;8.576;2023-05-10T07:27:25;3.00;;;2.30;;
691;SDS011;328;50.086;8.576;2023-05-10T07:29:53;7.40;;;3.83;;
691;SDS011;328;50.086;8.576;2023-05-10T07:32:22;2.80;;;2.10;;
691;SDS011;328;50.086;8.576;2023-05-10T07:34:50;8.30;;;2.57;;
691;SDS011;328;50.086;8.576;2023-05-10T07:37:17;4.07;;;2.47;;
691;SDS011;328;50.086;8.576;2023-05-10T07:39:45;5.53;;;2.00;;
691;SDS011;328;50.086;8.576;2023-05-10T07:42:12;2.93;;;2.00;;
691;SDS011;328;50.086;8.576;2023-05-10T07:44:41;3.47;;;2.10;;
691;SDS011;328;50.086;8.576;2023-05-10T07:47:09;2.63;;;2.07;;
691;SDS011;328;50.086;8.576;2023-05-10T07:49:37;4.20;;;2.40;;
691;SDS011;328;50.086;8.576;2023-05-10T07:52:06;4.43;;;2.40;;
691;SDS011;328;50.086;8.576;2023-05-10T07:54:34;4.17;;;1.93;;
691;SDS011;328;50.086;8.576;2023-05-10T07:57:01;2.93;;;2.40;;
691;SDS011;328;50.086;8.576;2023-05-10T07:59:29;4.17;;;3.00;;
691;SDS011;328;50.086;8.576;2023-05-10T08:01:58;3.83;;;2.60;;
691;SDS011;328;50.086;8.576;2023-05-10T08:04:25;5.23;;;2.47;;
691;SDS011;328;50.086;8.576;2023-05-10T08:06:53;3.90;;;2.20;;
691;SDS011;328;50.086;8.576;2023-05-10T08:09:20;5.10;;;2.63;;
691;SDS011;328;50.086;8.576;2023-05-10T08:11:50;2.93;;;1.63;;
691;SDS011;328;50.086;8.576;2023-05-10T08:14:17;2.30;;;2.03;;
691;SDS011;328;50.086;8.576;2023-05-10T08:16:45;2.97;;;1.80;;
691;SDS011;328;50.086;8.576;2023-05-10T08:19:14;3.10;;;1.80;;
691;SDS011;328;50.086;8.576;2023-05-10T08:21:45;2.10;;;1.80;;
691;SDS011;328;50.086;8.576;2023-05-10T08:24:12;3.00;;;1.43;;
691;SDS011;328;50.086;8.576;2023-05-10T08:26:40;4.97;;;2.10;;
691;SDS011;328;50.086;8.576;2023-05-10T08:29:07;1.70;;;1.60;;
691;SDS011;328;50.086;8.576;2023-05-10T08:31:35;13.47;;;2.80;;
691;SDS011;328;50.086;8.576;2023-05-10T08:34:02;2.50;;;1.60;;
691;SDS011;328;50.086;8.576;2023-05-10T08:36:31;4.83;;;1.73;;
691;SDS011;328;50.086;8.576;2023-05-10T08:38:59;2.83;;;1.60;;
691;SDS011;328;50.086;8.576;2023-05-10T08:41:26;3.13;;;1.20;;
691;SDS011;328;50.086;8.576;2023-05-10T08:43:54;3.90;;;2.20;;
691;SDS011;328;50.086;8.576;2023-05-10T08:46:22;3.93;;;1.50;;
691;SDS011;328;50.086;8.576;2023-05-10T08:48:50;2.40;;;1.33;;
691;SDS011;328;50.086;8.576;2023-05-10T08:51:19;4.70;;;2.17;;
691;SDS011;328;50.086;8.576;2023-05-10T08:53:48;2.10;;;1.53;;
691;SDS011;328;50.086;8.576;2023-05-10T08:56:16;3.70;;;1.73;;
691;SDS011;328;50.086;8.576;2023-05-10T08:58:44;3.83;;;1.50;;
691;SDS011;328;50.086;8.576;2023-05-10T09:01:11;2.40;;;1.70;;
691;SDS011;328;50.086;8.576;2023-05-10T09:03:40;3.07;;;1.53;;
691;SDS011;328;50.086;8.576;2023-05-10T09:06:07;2.50;;;1.50;;
691;SDS011;328;50.086;8.576;2023-05-10T09:08:35;2.00;;;1.70;;
691;SDS011;328;50.086;8.576;2023-05-10T09:11:05;2.80;;;1.20;;
691;SDS011;328;50.086;8.576;2023-05-10T09:13:32;3.07;;;1.50;;
691;SDS011;328;50.086;8.576;2023-05-10T09:16:00;1.37;;;1.27;;
691;SDS011;328;50.086;8.576;2023-05-10T09:18:46;3.83;;;1.80;;
691;SDS011;328;50.086;8.576;2023-05-10T09:21:15;7.23;;;1.70;;
691;SDS011;328;50.086;8.576;2023-05-10T09:23:43;1.77;;;1.47;;
691;SDS011;328;50.086;8.576;2023-05-10T09:26:15;2.83;;;1.33;;
691;SDS011;328;50.086;8.576;2023-05-10T09:28:50;2.87;;;1.40;;
691;SDS011;328;50.086;8.576;2023-05-10T09:31:18;2.03;;;1.77;;
691;SDS011;328;50.086;8.576;2023-05-10T09:33:46;2.03;;;1.30;;
691;SDS011;328;50.086;8.576;2023-05-10T09:36:14;4.77;;;1.80;;
691;SDS011;328;50.086;8.576;2023-05-10T09:38:45;1.83;;;0.93;;
691;SDS011;328;50.086;8.576;2023-05-10T09:41:19;4.83;;;1.60;;
691;SDS011;328;50.086;8.576;2023-05-10T09:43:50;2.10;;;1.20;;
691;SDS011;328;50.086;8.576;2023-05-10T09:46:17;2.07;;;1.30;;
691;SDS011;328;50.086;8.576;2023-05-10T09:48:46;2.07;;;1.53;;
691;SDS011;328;50.086;8.576;2023-05-10T09:51:20;3.63;;;1.27;;
691;SDS011;328;50.086;8.576;2023-05-10T09:53:48;1.17;;;1.03;;
691;SDS011;328;50.086;8.576;2023-05-10T09:59:06;2.00;;;0.93;;
691;SDS011;328;50.086;8.576;2023-05-10T10:01:36;2.03;;;1.00;;
691;SDS011;328;50.086;8.576;2023-05-10T10:04:04;3.40;;;1.50;;
691;SDS011;328;50.086;8.576;2023-05-10T10:06:35;3.40;;;1.67;;
691;SDS011;328;50.086;8.576;2023-05-10T10:09:04;2.07;;;1.43;;
691;SDS011;328;50.086;8.576;2023-05-10T10:11:33;1.30;;;1.07;;
691;SDS011;328;50.086;8.576;2023-05-10T10:14:03;4.20;;;1.10;;
691;SDS011;328;50.086;8.576;2023-05-10T10:16:31;2.07;;;1.07;;
691;SDS011;328;50.086;8.576;2023-05-10T10:18:59;2.63;;;1.50;;
691;SDS011;328;50.086;8.576;2023-05-10T10:21:27;1.70;;;1.20;;
691;SDS011;328;50.086;8.576;2023-05-10T10:23:55;1.40;;;1.10;;
691;SDS011;328;50.086;8.576;2023-05-10T10:26:22;1.37;;;1.10;;
691;SDS011;328;50.086;8.576;2023-05-10T10:28:56;3.10;;;0.90;;
691;SDS011;328;50.086;8.576;2023-05-10T10:31:28;1.43;;;0.80;;
691;SDS011;328;50.086;8.576;2023-05-10T10:34:00;1.23;;;0.70;;
691;SDS011;328;50.086;8.576;2023-05-10T10:36:29;1.43;;;0.93;;
691;SDS011;328;50.086;8.576;2023-05-10T10:38:59;1.77;;;0.90;;
691;SDS011;328;50.086;8.576;2023-05-10T10:41:30;1.20;;;0.70;;
691;SDS011;328;50.086;8.576;2023-05-10T10:47:06;0.70;;;0.57;;
691;SDS011;328;50.086;8.576;2023-05-10T10:49:42;1.10;;;0.80;;
691;SDS011;328;50.086;8.576;2023-05-10T10:52:15;1.07;;;0.70;;
691;SDS011;328;50.086;8.576;2023-05-10T10:54:49;1.10;;;0.80;;
691;SDS011;328;50.086;8.576;2023-05-10T10:57:18;1.10;;;0.73;;
691;SDS011;328;50.086;8.576;2023-05-10T10:59:49;3.30;;;1.03;;
691;SDS011;328;50.086;8.576;2023-05-10T11:02:32;1.90;;;1.00;;
691;SDS011;328;50.086;8.576;2023-05-10T11:07:53;2.80;;;1.00;;
691;SDS011;328;50.086;8.576;2023-05-10T11:10:21;2.90;;;1.00;;
691;SDS011;328;50.086;8.576;2023-05-10T11:12:52;3.93;;;0.80;;
691;SDS011;328;50.086;8.576;2023-05-10T11:15:29;1.80;;;0.90;;
691;SDS011;328;50.086;8.576;2023-05-10T11:17:57;1.43;;;0.93;;
691;SDS011;328;50.086;8.576;2023-05-10T11:20:27;2.30;;;0.90;;
691;SDS011;328;50.086;8.576;2023-05-10T11:23:10;1.70;;;1.40;;
691;SDS011;328;50.086;8.576;2023-05-10T11:25:40;1.90;;;0.93;;
691;SDS011;328;50.086;8.576;2023-05-10T11:28:09;2.60;;;0.97;;
691;SDS011;328;50.086;8.576;2023-05-10T11:30:39;1.70;;;1.20;;
691;SDS011;328;50.086;8.576;2023-05-10T11:33:07;1.37;;;0.90;;
691;SDS011;328;50.086;8.576;2023-05-10T11:35:38;2.10;;;0.90;;
691;SDS011;328;50.086;8.576;2023-05-10T11:38:09;1.80;;;0.97;;
691;SDS011;328;50.086;8.576;2023-05-10T11:40:37;2.50;;;0.93;;
691;SDS011;328;50.086;8.576;2023-05-10T11:43:05;1.07;;;0.93;;
691;SDS011;328;50.086;8.576;2023-05-10T11:45:33;1.10;;;0.80;;
691;SDS011;328;50.086;8.576;2023-05-10T11:48:02;2.50;;;1.27;;
691;SDS011;328;50.086;8.576;2023-05-10T11:50:29;0.90;;;0.80;;
691;SDS011;328;50.086;8.576;2023-05-10T11:52:57;1.57;;;1.30;;
691;SDS011;328;50.086;8.576;2023-05-10T11:55:25;1.23;;;1.13;;
691;SDS011;328;50.086;8.576;2023-05-10T11:57:53;1.93;;;1.13;;
691;SDS011;328;50.086;8.576;2023-05-10T12:00:21;1.70;;;1.30;;
691;SDS011;328;50.086;8.576;2023-05-10T12:02:48;1.20;;;1.10;;
691;SDS011;328;50.086;8.576;2023-05-10T12:05:18;1.43;;;1.30;;
691;SDS011;328;50.086;8.576;2023-05-10T12:07:45;1.07;;;0.97;;
691;SDS011;328;50.086;8.576;2023-05-10T12:10:13;1.57;;;1.00;;
691;SDS011;328;50.086;8.576;2023-05-10T12:12:42;1.67;;;1.57;;
691;SDS011;328;50.086;8.576;2023-05-10T12:15:11;3.27;;;0.83;;
691;SDS011;328;50.086;8.576;2023-05-10T12:17:39;1.57;;;0.83;;
691;SDS011;328;50.086;8.576;2023-05-10T12:20:15;2.20;;;0.70;;
691;SDS011;328;50.086;8.576;2023-05-10T12:22:46;1.87;;;0.60;;
691;SDS011;328;50.086;8.576;2023-05-10T12:25:17;0.80;;;0.60;;
691;SDS011;328;50.086;8.576;2023-05-10T12:27:48;3.57;;;0.83;;
691;SDS011;328;50.086;8.576;2023-05-10T12:30:21;3.17;;;1.40;;
691;SDS011;328;50.086;8.576;2023-05-10T12:32:49;0.80;;;0.60;;
691;SDS011;328;50.086;8.576;2023-05-10T12:35:18;0.90;;;0.67;;
691;SDS011;328;50.086;8.576;2023-05-10T12:37:48;1.50;;;0.90;;
691;SDS011;328;50.086;8.576;2023-05-10T12:40:15;1.33;;;0.83;;
691;SDS011;328;50.086;8.576;2023-05-10T12:42:43;0.80;;;0.63;;
691;SDS011;328;50.086;8.576;2023-05-10T12:45:11;1.40;;;1.00;;
691;SDS011;328;50.086;8.576;2023-05-10T12:47:39;0.90;;;0.57;;
691;SDS011;328;50.086;8.576;2023-05-10T12:50:09;1.23;;;0.63;;
691;SDS011;328;50.086;8.576;2023-05-10T12:52:38;1.00;;;0.67;;
691;SDS011;328;50.086;8.576;2023-05-10T12:55:06;0.90;;;0.57;;
691;SDS011;328;50.086;8.576;2023-05-10T12:57:34;1.90;;;0.60;;
691;SDS011;328;50.086;8.576;2023-05-10T13:00:02;1.20;;;0.80;;
691;SDS011;328;50.086;8.576;2023-05-10T13:02:31;1.97;;;0.70;;
691;SDS011;328;50.086;8.576;2023-05-10T13:04:58;1.80;;;0.60;;
691;SDS011;328;50.086;8.576;2023-05-10T13:07:26;1.53;;;0.70;;
691;SDS011;328;50.086;8.576;2023-05-10T13:09:55;1.97;;;0.87;;
691;SDS011;328;50.086;8.576;2023-05-10T13:12:22;0.90;;;0.60;;
691;SDS011;328;50.086;8.576;2023-05-10T13:14:50;1.10;;;0.80;;
691;SDS011;328;50.086;8.576;2023-05-10T13:17:17;0.90;;;0.80;;
691;SDS011;328;50.086;8.576;2023-05-10T13:19:45;1.23;;;0.60;;
691;SDS011;328;50.086;8.576;2023-05-10T13:22:12;1.73;;;0.70;;
691;SDS011;328;50.086;8.576;2023-05-10T13:24:48;1.60;;;0.70;;
691;SDS011;328;50.086;8.576;2023-05-10T13:27:17;1.00;;;0.60;;
691;SDS011;328;50.086;8.576;2023-05-10T13:29:44;1.87;;;0.70;;
691;SDS011;328;50.086;8.576;2023-05-10T13:32:14;1.03;;;0.70;;
691;SDS011;328;50.086;8.576;2023-05-10T13:34:41;1.50;;;0.70;;
691;SDS011;328;50.086;8.576;2023-05-10T13:37:09;2.20;;;0.60;;
691;SDS011;328;50.086;8.576;2023-05-10T13:39:36;2.23;;;0.70;;
691;SDS011;328;50.086;8.576;2023-05-10T13:42:04;1.90;;;0.90;;
691;SDS011;328;50.086;8.576;2023-05-10T13:44:33;2.30;;;0.70;;
691;SDS011;328;50.086;8.576;2023-05-10T13:47:02;3.03;;;1.00;;
691;SDS011;328;50.086;8.576;2023-05-10T13:49:29;0.93;;;0.70;;
691;SDS011;328;50.086;8.576;2023-05-10T13:51:57;3.83;;;0.67;;
691;SDS011;328;50.086;8.576;2023-05-10T13:54:24;1.53;;;0.73;;
691;SDS011;328;50.086;8.576;2023-05-10T13:56:55;1.57;;;0.60;;
691;SDS011;328;50.086;8.576;2023-05-10T13:59:22;2.37;;;1.07;;
691;SDS011;328;50.086;8.576;2023-05-10T14:01:51;5.37;;;0.90;;
691;SDS011;328;50.086;8.576;2023-05-10T14:04:19;1.40;;;0.50;;
691;SDS011;328;50.086;8.576;2023-05-10T14:06:46;1.00;;;0.60;;
691;SDS011;328;50.086;8.576;2023-05-10T14:09:14;12.40;;;1.10;;
691;SDS011;328;50.086;8.576;2023-05-10T14:11:41;1.17;;;0.63;;
691;SDS011;328;50.086;8.576;2023-05-10T14:14:11;0.90;;;0.60;;
691;SDS011;328;50.086;8.576;2023-05-10T14:16:41;3.27;;;0.60;;
691;SDS011;328;50.086;8.576;2023-05-10T14:19:11;1.53;;;0.53;;
691;SDS011;328;50.086;8.576;2023-05-10T14:21:38;2.13;;;0.67;;
691;SDS011;328;50.086;8.576;2023-05-10T14:24:06;0.90;;;0.60;;
691;SDS011;328;50.086;8.576;2023-05-10T14:26:33;1.03;;;0.50;;
691;SDS011;328;50.086;8.576;2023-05-10T14:29:01;0.90;;;0.67;;
691;SDS011;328;50.086;8.576;2023-05-10T14:31:29;1.40;;;0.83;;
691;SDS011;328;50.086;8.576;2023-05-10T14:33:57;1.00;;;0.50;;
691;SDS011;328;50.086;8.576;2023-05-10T14:36:26;2.97;;;0.80;;
691;SDS011;328;50.086;8.576;2023-05-10T14:38:55;1.20;;;0.50;;
691;SDS011;328;50.086;8.576;2023-05-10T14:41:22;1.73;;;0.60;;
691;SDS011;328;50.086;8.576;2023-05-10T14:43:50;1.57;;;0.80;;
691;SDS011;328;50.086;8.576;2023-05-10T14:46:18;1.13;;;0.60;;
691;SDS011;328;50.086;8.576;2023-05-10T14:48:46;1.00;;;0.80;;
691;SDS011;328;50.086;8.576;2023-05-10T14:51:13;1.40;;;0.80;;
691;SDS011;328;50.086;8.576;2023-05-10T14:53:42;3.37;;;0.90;;
691;SDS011;328;50.086;8.576;2023-05-10T14:56:09;2.60;;;0.77;;
691;SDS011;328;50.086;8.576;2023-05-10T14:58:37;1.67;;;0.70;;
691;SDS011;328;50.086;8.576;2023-05-10T15:01:04;1.47;;;0.80;;
691;SDS011;328;50.086;8.576;2023-05-10T15:03:32;0.93;;;0.60;;
691;SDS011;328;50.086;8.576;2023-05-10T15:06:00;0.90;;;0.60;;
691;SDS011;328;50.086;8.576;2023-05-10T15:08:28;0.87;;;0.60;;
691;SDS011;328;50.086;8.576;2023-05-10T15:10:57;1.63;;;0.77;;
691;SDS011;328;50.086;8.576;2023-05-10T15:13:24;5.20;;;0.87;;
691;SDS011;328;50.086;8.576;2023-05-10T15:15:52;2.77;;;1.03;;
691;SDS011;328;50.086;8.576;2023-05-10T15:18:20;2.50;;;0.60;;
691;SDS011;328;50.086;8.576;2023-05-10T15:20:49;2.50;;;0.83;;
691;SDS011;328;50.086;8.576;2023-05-10T15:23:17;1.20;;;0.70;;
691;SDS011;328;50.086;8.576;2023-05-10T15:25:44;1.00;;;0.70;;
691;SDS011;328;50.086;8.576;2023-05-10T15:28:13;1.37;;;0.60;;
691;SDS011;328;50.086;8.576;2023-05-10T15:30:41;1.93;;;0.77;;
691;SDS011;328;50.086;8.576;2023-05-10T15:33:08;0.83;;;0.70;;
691;SDS011;328;50.086;8.576;2023-05-10T15:35:36;0.80;;;0.60;;
691;SDS011;328;50.086;8.576;2023-05-10T15:38:05;4.60;;;0.97;;
691;SDS011;328;50.086;8.576;2023-05-10T15:40:33;2.20;;;0.87;;
691;SDS011;328;50.086;8.576;2023-05-10T15:43:00;2.13;;;0.97;;
691;SDS011;328;50.086;8.576;2023-05-10T15:45:29;2.40;;;0.80;;
691;SDS011;328;50.086;8.576;2023-05-10T15:47:57;2.47;;;1.03;;
691;SDS011;328;50.086;8.576;2023-05-10T15:50:25;5.50;;;2.00;;
691;SDS011;328;50.086;8.576;2023-05-10T15:52:52;1.20;;;0.70;;
691;SDS011;328;50.086;8.576;2023-05-10T15:55:20;1.23;;;0.70;;
691;SDS011;328;50.086;8.576;2023-05-10T15:57:47;3.33;;;0.83;;
691;SDS011;328;50.086;8.576;2023-05-10T16:00:15;1.30;;;0.93;;
691;SDS011;328;50.086;8.576;2023-05-10T16:02:45;0.90;;;0.80;;
691;SDS011;328;50.086;8.576;2023-05-10T16:05:12;1.50;;;1.03;;